createdAt,value
2023-03-16T00:04:13.178Z,101625.16
2023-03-16T00:11:14.765Z,101633.41
2023-03-16T00:18:16.302Z,101633.44
2023-03-16T00:25:18.412Z,101636.31
2023-03-16T00:32:21.494Z,101631.94
2023-03-16T00:39:23.340Z,101634.53
2023-03-16T00:46:26.596Z,101640.94
2023-03-16T00:53:28.327Z,101641.09
2023-03-16T01:00:29.892Z,101648.34
2023-03-16T01:07:31.499Z,101655.41
2023-03-16T01:14:34.789Z,101647.44
2023-03-16T01:21:38.839Z,101652.09
2023-03-16T01:28:40.660Z,101649.47
2023-03-16T01:35:42.366Z,101647.75
2023-03-16T01:42:49.160Z,101645.75
2023-03-16T01:49:54.940Z,101649.50
2023-03-16T01:57:10.479Z,101657.75
2023-03-16T02:04:23.038Z,101658.78
2023-03-16T02:11:26.375Z,101645.56
2023-03-16T02:18:42.430Z,101638.50
2023-03-16T02:26:09.470Z,101640.81
2023-03-16T02:33:12.044Z,101643.34
2023-03-16T02:40:25.531Z,101639.41
2023-03-16T02:47:34.060Z,101651.84
2023-03-16T02:54:35.783Z,101650.53
2023-03-16T03:01:37.593Z,101658.53
2023-03-16T03:08:39.413Z,101653.13
2023-03-16T03:15:41.112Z,101664.72
2023-03-16T03:22:46.922Z,101678.13
2023-03-16T03:29:48.705Z,101680.78
2023-03-16T03:36:50.370Z,101687.13
2023-03-16T03:43:52.130Z,101686.31
2023-03-16T03:50:54.040Z,101697.78
2023-03-16T03:58:12.408Z,101696.91
2023-03-16T04:05:14.372Z,101694.56
2023-03-16T04:12:16.011Z,101685.66
2023-03-16T04:19:18.562Z,101688.16
2023-03-16T04:26:25.588Z,101696.19
2023-03-16T04:33:28.252Z,101695.00
2023-03-16T04:40:30.837Z,101693.94
2023-03-16T04:47:41.834Z,101704.78
2023-03-16T04:54:43.827Z,101706.50
2023-03-16T05:01:49.790Z,101695.84
2023-03-16T05:08:52.367Z,101704.88
2023-03-16T05:15:54.259Z,101714.59
2023-03-16T05:23:08.657Z,101708.56
2023-03-16T05:30:17.567Z,101715.03
2023-03-16T05:37:20.520Z,101725.41
2023-03-16T05:44:22.334Z,101725.25
2023-03-16T05:51:42.412Z,101721.91
2023-03-16T05:58:44.307Z,101743.03
2023-03-16T06:05:46.293Z,101744.09
2023-03-16T06:12:49.944Z,101747.81
2023-03-16T06:19:53.461Z,101748.53
2023-03-16T06:26:55.275Z,101753.69
2023-03-16T06:34:02.436Z,101754.28
2023-03-16T06:41:05.374Z,101769.34
2023-03-16T06:48:09.836Z,101760.88
2023-03-16T06:55:12.782Z,101782.91
2023-03-16T07:02:19.752Z,101783.03
2023-03-16T07:09:21.958Z,101792.03
2023-03-16T07:16:23.849Z,101800.47
2023-03-16T07:23:26.114Z,101799.78
2023-03-16T07:30:32.851Z,101808.88
2023-03-16T07:37:35.140Z,101815.78
2023-03-16T07:44:38.678Z,101817.00
2023-03-16T07:51:40.981Z,101806.06
2023-03-16T07:58:43.473Z,101800.41
2023-03-16T08:05:45.261Z,101812.44
2023-03-16T08:12:50.103Z,101827.44
2023-03-16T08:19:52.756Z,101812.28
2023-03-16T08:26:57.440Z,101813.69
2023-03-16T08:33:59.441Z,101804.94
2023-03-16T08:41:03.028Z,101805.72
2023-03-16T08:48:05.186Z,101812.75
2023-03-16T08:55:09.591Z,101816.53
2023-03-16T09:02:14.531Z,101817.84
2023-03-16T09:09:16.375Z,101816.31
2023-03-16T09:16:18.097Z,101822.75
2023-03-16T09:23:20.947Z,101825.84
2023-03-16T09:30:22.497Z,101826.81
2023-03-16T09:37:24.097Z,101828.22
2023-03-16T09:45:24.233Z,101821.09
2023-03-16T09:52:33.965Z,101820.34
2023-03-16T09:59:35.556Z,101818.81
2023-03-16T10:06:42.832Z,101819.25
2023-03-16T10:14:25.372Z,101829.41
2023-03-16T10:21:27.205Z,101818.50
2023-03-16T10:28:28.954Z,101810.16
2023-03-16T10:35:48.827Z,101806.31
2023-03-16T10:42:50.231Z,101798.22
2023-03-16T10:49:51.900Z,101792.25
2023-03-16T10:56:53.454Z,101794.44
2023-03-16T11:03:56.946Z,101788.03
2023-03-16T11:11:08.407Z,101796.31
2023-03-16T11:18:16.317Z,101785.03
2023-03-16T11:25:31.873Z,101772.41
2023-03-16T11:32:36.184Z,101769.78
2023-03-16T11:40:15.135Z,101760.25
2023-03-16T11:47:47.056Z,101747.53
2023-03-16T11:55:13.875Z,101739.38
2023-03-16T12:02:29.380Z,101734.13
2023-03-16T12:09:50.879Z,101728.13
2023-03-16T12:17:25.545Z,101713.75
2023-03-16T12:24:28.365Z,101713.50
2023-03-16T12:31:44.130Z,101711.19
2023-03-16T12:39:09.368Z,101691.28
2023-03-16T12:46:33.584Z,101686.56
2023-03-16T12:53:45.507Z,101678.25
2023-03-16T13:00:56.488Z,101680.88
2023-03-16T13:08:11.726Z,101665.94
2023-03-16T13:15:23.366Z,101663.19
2023-03-16T13:22:29.499Z,101651.94
2023-03-16T13:29:32.043Z,101653.91
2023-03-16T13:36:33.907Z,101665.53
2023-03-16T13:43:37.831Z,101655.13
2023-03-16T13:50:41.252Z,101655.38
2023-03-16T13:57:43.969Z,101639.75
2023-03-16T14:04:45.527Z,101638.03
2023-03-16T14:11:48.611Z,101611.41
2023-03-16T14:19:03.942Z,101611.56
2023-03-16T14:26:06.332Z,101613.84
2023-03-16T14:33:51.972Z,101623.00
2023-03-16T14:40:55.000Z,101604.44
2023-03-16T14:48:04.534Z,101586.13
2023-03-16T14:55:11.853Z,101576.84
2023-03-16T15:02:16.901Z,101578.50
2023-03-16T15:09:40.558Z,101584.06
2023-03-16T15:16:42.399Z,101566.59
2023-03-16T15:23:44.116Z,101565.81
2023-03-16T15:30:55.717Z,101573.31
2023-03-16T15:37:57.507Z,101573.91
2023-03-16T15:44:59.044Z,101567.84
2023-03-16T15:52:01.127Z,101548.94
2023-03-16T15:59:04.264Z,101551.78
2023-03-16T16:06:10.996Z,101555.25
2023-03-16T16:13:23.390Z,101549.94
2023-03-16T16:20:28.340Z,101556.03
2023-03-16T16:27:29.893Z,101552.41
2023-03-16T16:34:31.468Z,101560.16
2023-03-16T16:41:33.467Z,101560.09
2023-03-16T16:48:38.817Z,101547.59
2023-03-16T16:55:42.320Z,101550.72
2023-03-16T17:02:45.165Z,101548.03
2023-03-16T17:09:46.806Z,101531.44
2023-03-16T17:16:50.041Z,101537.25
2023-03-16T17:23:52.928Z,101548.59
2023-03-16T17:30:54.522Z,101551.56
2023-03-16T17:37:56.061Z,101560.34
2023-03-16T17:44:58.027Z,101546.16
2023-03-16T17:51:59.579Z,101554.47
2023-03-16T17:59:02.383Z,101558.25
2023-03-16T18:06:04.720Z,101542.41
2023-03-16T18:13:08.839Z,101544.03
2023-03-16T18:20:20.469Z,101557.09
2023-03-16T18:27:22.348Z,101545.28
2023-03-16T18:34:24.037Z,101526.50
2023-03-16T18:41:27.472Z,101546.91
2023-03-16T18:48:30.316Z,101540.34
2023-03-16T18:55:32.307Z,101528.38
2023-03-16T19:02:37.332Z,101520.75
2023-03-16T19:09:39.040Z,101523.53
2023-03-16T19:16:40.618Z,101513.38
2023-03-16T19:23:42.225Z,101508.53
2023-03-16T19:30:43.819Z,101513.88
2023-03-16T19:37:46.457Z,101516.69
2023-03-16T19:44:49.272Z,101526.09
2023-03-16T19:51:52.022Z,101517.94
2023-03-16T19:58:54.335Z,101502.34
2023-03-16T20:05:55.902Z,101520.84
2023-03-16T20:12:58.429Z,101516.78
2023-03-16T20:19:59.976Z,101517.97
2023-03-16T20:27:02.713Z,101509.78
2023-03-16T20:34:08.449Z,101511.72
2023-03-16T20:41:16.311Z,101511.25
2023-03-16T20:48:17.944Z,101505.47
2023-03-16T20:55:21.533Z,101498.94
2023-03-16T21:02:31.980Z,101496.81
2023-03-16T21:09:33.591Z,101481.84
2023-03-16T21:16:35.160Z,101478.06
2023-03-16T21:23:36.730Z,101474.00
2023-03-16T21:30:39.574Z,101460.44
2023-03-16T21:37:41.243Z,101458.13
2023-03-16T21:44:42.992Z,101430.56
2023-03-16T21:51:44.560Z,101436.44
2023-03-16T21:58:46.588Z,101433.06
2023-03-16T22:05:48.135Z,101430.97
2023-03-16T22:12:49.676Z,101403.72
2023-03-16T22:19:51.437Z,101398.53
2023-03-16T22:26:53.590Z,101391.97
2023-03-16T22:33:55.165Z,101403.22
2023-03-16T22:40:56.763Z,101379.16
2023-03-16T22:47:59.665Z,101385.59
2023-03-16T22:55:01.367Z,101375.47
2023-03-16T23:02:02.963Z,101367.69
2023-03-16T23:09:04.856Z,101355.19
2023-03-16T23:16:09.992Z,101358.41
2023-03-16T23:23:11.884Z,101367.44
2023-03-16T23:30:24.059Z,101348.13
2023-03-16T23:37:25.687Z,101342.19
2023-03-16T23:44:27.688Z,101336.63
2023-03-16T23:51:31.315Z,101336.59
2023-03-16T23:58:32.911Z,101337.09
